createdAt,value
2018-05-18T00:01:32.625Z,7.93
2018-05-18T00:04:02.184Z,8.77
2018-05-18T00:06:30.473Z,9.10
2018-05-18T00:08:58.757Z,7.97
2018-05-18T00:11:27.073Z,8.67
2018-05-18T00:13:55.452Z,8.70
2018-05-18T00:16:23.755Z,8.20
2018-05-18T00:18:51.997Z,7.47
2018-05-18T00:21:20.389Z,8.20
2018-05-18T00:23:49.914Z,8.80
2018-05-18T00:26:18.240Z,8.53
2018-05-18T00:28:46.599Z,7.73
2018-05-18T00:31:15.676Z,8.83
2018-05-18T00:33:44.738Z,9.17
2018-05-18T00:36:12.996Z,8.53
2018-05-18T00:38:41.312Z,8.87
2018-05-18T00:41:09.564Z,8.53
2018-05-18T00:43:37.867Z,8.50
2018-05-18T00:46:06.165Z,8.63
2018-05-18T00:48:35.206Z,9.80
2018-05-18T00:51:03.521Z,9.00
2018-05-18T00:53:31.774Z,10.63
2018-05-18T00:56:00.070Z,9.63
2018-05-18T00:58:28.297Z,9.67
2018-05-18T01:00:56.620Z,9.77
2018-05-18T01:03:24.897Z,9.57
2018-05-18T01:05:53.250Z,9.40
2018-05-18T01:08:21.552Z,8.60
2018-05-18T01:10:49.847Z,8.73
2018-05-18T01:13:18.973Z,10.03
2018-05-18T01:15:47.323Z,9.50
2018-05-18T01:18:15.557Z,9.40
2018-05-18T01:20:43.817Z,9.00
2018-05-18T01:23:12.094Z,8.57
2018-05-18T01:25:43.321Z,10.27
2018-05-18T01:28:11.582Z,8.73
2018-05-18T01:30:39.855Z,9.27
2018-05-18T01:33:08.144Z,8.47
2018-05-18T01:35:36.413Z,8.90
2018-05-18T01:38:04.703Z,8.10
2018-05-18T01:40:33.120Z,8.20
2018-05-18T01:43:02.301Z,9.50
2018-05-18T01:45:30.696Z,7.87
2018-05-18T01:47:58.967Z,9.20
2018-05-18T01:50:27.228Z,8.77
2018-05-18T01:52:55.524Z,7.47
2018-05-18T01:55:23.774Z,7.37
2018-05-18T01:57:52.961Z,7.80
2018-05-18T02:00:22.194Z,7.17
2018-05-18T02:02:51.233Z,6.37
2018-05-18T02:05:20.256Z,7.63
2018-05-18T02:07:48.560Z,7.17
2018-05-18T02:10:16.831Z,9.20
2018-05-18T02:12:48.849Z,7.27
2018-05-18T02:15:17.892Z,7.30
2018-05-18T02:17:47.259Z,7.57
2018-05-18T02:20:15.516Z,8.47
2018-05-18T02:22:43.760Z,8.40
2018-05-18T02:25:12.798Z,7.53
2018-05-18T02:27:41.076Z,8.77
2018-05-18T02:30:09.351Z,7.37
2018-05-18T02:32:37.660Z,9.00
2018-05-18T02:35:05.920Z,8.27
2018-05-18T02:37:34.340Z,8.10
2018-05-18T02:40:02.604Z,8.13
2018-05-18T02:42:30.871Z,8.13
2018-05-18T02:44:59.145Z,8.80
2018-05-18T02:47:27.448Z,8.00
2018-05-18T02:49:56.513Z,8.23
2018-05-18T02:52:25.792Z,8.17
2018-05-18T02:54:53.974Z,7.47
2018-05-18T02:57:22.236Z,9.38
2018-05-18T02:59:50.482Z,9.00
2018-05-18T03:02:19.431Z,8.30
2018-05-18T03:04:47.780Z,8.03
2018-05-18T03:07:16.036Z,9.60
2018-05-18T03:09:44.348Z,7.97
2018-05-18T03:12:12.618Z,7.83
2018-05-18T03:14:42.192Z,8.23
2018-05-18T03:17:11.212Z,7.73
2018-05-18T03:19:39.472Z,8.30
2018-05-18T03:22:07.774Z,7.97
2018-05-18T03:24:37.186Z,7.83
2018-05-18T03:27:05.462Z,8.17
2018-05-18T03:29:33.762Z,7.47
2018-05-18T03:32:02.053Z,9.23
2018-05-18T03:34:31.094Z,8.13
2018-05-18T03:36:59.365Z,8.67
2018-05-18T03:39:27.680Z,7.60
2018-05-18T03:41:55.958Z,7.60
2018-05-18T03:44:24.255Z,7.53
2018-05-18T03:46:53.317Z,9.20
2018-05-18T03:49:21.571Z,8.00
2018-05-18T03:51:49.882Z,8.17
2018-05-18T03:54:18.159Z,8.03
2018-05-18T03:56:47.173Z,8.20
2018-05-18T03:59:16.252Z,8.13
2018-05-18T04:01:57.110Z,7.33
2018-05-18T04:04:37.716Z,7.50
2018-05-18T04:07:18.700Z,7.40
2018-05-18T04:09:46.977Z,7.23
2018-05-18T04:12:15.214Z,7.83
2018-05-18T04:14:44.276Z,8.30
2018-05-18T04:17:12.566Z,8.13
2018-05-18T04:19:40.830Z,7.97
2018-05-18T04:22:09.125Z,9.47
2018-05-18T04:24:37.420Z,8.23
2018-05-18T04:27:06.510Z,7.93
2018-05-18T04:29:34.789Z,7.83
2018-05-18T04:32:03.881Z,7.37
2018-05-18T04:34:32.241Z,7.57
2018-05-18T04:37:00.499Z,6.90
2018-05-18T04:39:28.771Z,7.73
2018-05-18T04:41:58.316Z,7.17
2018-05-18T04:44:26.672Z,8.00
2018-05-18T04:46:54.952Z,8.20
2018-05-18T04:49:23.209Z,8.80
2018-05-18T04:51:51.916Z,7.97
2018-05-18T04:54:20.266Z,7.70
2018-05-18T04:56:49.534Z,8.50
2018-05-18T04:59:18.688Z,7.83
2018-05-18T05:01:46.992Z,7.30
2018-05-18T05:04:15.982Z,7.53
2018-05-18T05:06:45.058Z,7.27
2018-05-18T05:09:13.304Z,7.87
2018-05-18T05:11:42.757Z,7.67
2018-05-18T05:14:11.006Z,7.63
2018-05-18T05:16:39.287Z,7.80
2018-05-18T05:19:07.612Z,6.70
2018-05-18T05:21:35.842Z,7.50
2018-05-18T05:24:04.909Z,6.27
2018-05-18T05:26:33.202Z,6.67
2018-05-18T05:29:01.441Z,6.47
2018-05-18T05:31:29.734Z,8.07
2018-05-18T05:33:58.761Z,7.17
2018-05-18T05:36:27.878Z,6.97
2018-05-18T05:38:57.660Z,6.67
2018-05-18T05:41:26.974Z,6.47
2018-05-18T05:43:56.031Z,7.20
2018-05-18T05:46:24.384Z,6.90
2018-05-18T05:48:52.561Z,7.47
2018-05-18T05:51:20.868Z,6.60
2018-05-18T05:53:49.161Z,7.43
2018-05-18T05:56:18.301Z,6.82
2018-05-18T05:58:47.395Z,6.70
2018-05-18T06:01:15.738Z,7.43
2018-05-18T06:03:44.763Z,7.90
2018-05-18T06:06:13.113Z,7.73
2018-05-18T06:08:42.509Z,8.33
2018-05-18T06:11:10.772Z,8.97
2018-05-18T06:13:39.114Z,8.20
2018-05-18T06:16:07.427Z,8.27
2018-05-18T06:18:35.711Z,8.35
2018-05-18T06:21:04.717Z,8.03
2018-05-18T06:23:37.527Z,8.40
2018-05-18T06:26:05.823Z,9.33
2018-05-18T06:28:34.067Z,8.77
2018-05-18T06:31:02.373Z,8.70
2018-05-18T06:33:30.673Z,9.50
2018-05-18T06:35:58.997Z,8.90
2018-05-18T06:38:27.327Z,9.67
2018-05-18T06:40:55.572Z,8.00
2018-05-18T06:43:24.891Z,8.20
2018-05-18T06:45:53.145Z,8.80
2018-05-18T06:48:22.666Z,7.87
2018-05-18T06:50:50.960Z,7.68
2018-05-18T06:53:19.192Z,7.03
2018-05-18T06:55:47.513Z,7.37
2018-05-18T06:58:15.903Z,7.67
2018-05-18T07:00:44.146Z,6.70
2018-05-18T07:03:12.457Z,6.20
2018-05-18T07:05:40.823Z,7.57
2018-05-18T07:08:09.137Z,6.93
2018-05-18T07:10:38.212Z,6.50
2018-05-18T07:13:06.478Z,5.77
2018-05-18T07:15:34.775Z,6.07
2018-05-18T07:18:03.563Z,7.10
2018-05-18T07:20:31.836Z,7.30
2018-05-18T07:23:00.179Z,7.43
2018-05-18T07:25:30.314Z,6.83
2018-05-18T07:27:58.596Z,6.73
2018-05-18T07:30:28.371Z,6.53
2018-05-18T07:32:56.661Z,6.90
2018-05-18T07:35:24.933Z,6.30
2018-05-18T07:37:56.935Z,6.20
2018-05-18T07:40:25.190Z,5.37
2018-05-18T07:42:53.483Z,6.67
2018-05-18T07:45:22.705Z,6.23
2018-05-18T07:47:51.025Z,6.93
2018-05-18T07:50:19.330Z,7.17
2018-05-18T07:52:47.588Z,7.43
2018-05-18T07:55:15.887Z,6.83
2018-05-18T07:57:44.206Z,7.50
2018-05-18T08:00:12.518Z,7.13
2018-05-18T08:02:40.785Z,7.57
2018-05-18T08:05:09.191Z,7.00
2018-05-18T08:07:37.429Z,6.73
2018-05-18T08:10:05.747Z,7.53
2018-05-18T08:12:34.004Z,8.13
2018-05-18T08:15:02.414Z,7.70
2018-05-18T08:17:31.352Z,7.30
2018-05-18T08:19:59.674Z,7.77
2018-05-18T08:22:30.201Z,6.90
2018-05-18T08:24:59.263Z,7.10
2018-05-18T08:27:28.333Z,6.77
2018-05-18T08:29:56.626Z,7.85
2018-05-18T08:32:24.903Z,7.30
2018-05-18T08:34:53.146Z,6.33
2018-05-18T08:37:21.457Z,8.20
2018-05-18T08:39:49.730Z,8.00
2018-05-18T08:42:18.122Z,8.20
2018-05-18T08:44:46.400Z,7.40
2018-05-18T08:47:14.719Z,7.10
2018-05-18T08:49:43.807Z,7.83
2018-05-18T08:52:12.078Z,7.27
2018-05-18T08:54:40.927Z,7.80
2018-05-18T08:57:09.212Z,9.27
2018-05-18T08:59:38.278Z,7.30
2018-05-18T09:02:06.559Z,7.50
2018-05-18T09:04:34.907Z,7.37
2018-05-18T09:07:04.045Z,9.10
2018-05-18T09:09:36.168Z,7.93
2018-05-18T09:12:05.310Z,7.23
2018-05-18T09:14:33.589Z,7.80
2018-05-18T09:17:01.863Z,7.60
2018-05-18T09:19:30.195Z,6.93
2018-05-18T09:22:00.154Z,7.13
2018-05-18T09:24:28.562Z,6.67
2018-05-18T09:26:56.822Z,7.53
2018-05-18T09:29:25.136Z,7.40
2018-05-18T09:31:54.238Z,6.93
2018-05-18T09:34:23.255Z,6.65
2018-05-18T09:36:51.579Z,7.22
2018-05-18T09:39:20.560Z,6.23
2018-05-18T09:41:48.878Z,5.85
2018-05-18T09:44:17.918Z,6.55
2018-05-18T09:46:46.291Z,6.50
2018-05-18T09:49:14.579Z,7.07
2018-05-18T09:51:42.825Z,7.47
2018-05-18T09:54:11.158Z,7.07
2018-05-18T09:56:40.280Z,6.45
2018-05-18T09:59:09.420Z,7.82
2018-05-18T10:01:37.704Z,7.80
2018-05-18T10:04:07.157Z,8.02
2018-05-18T10:06:36.237Z,7.05
2018-05-18T10:09:06.608Z,6.18
2018-05-18T10:11:34.925Z,6.87
2018-05-18T10:14:03.972Z,7.78
2018-05-18T10:16:32.290Z,7.67
2018-05-18T10:19:00.566Z,7.22
2018-05-18T10:21:30.060Z,7.63
2018-05-18T10:23:58.284Z,8.83
2018-05-18T10:26:26.565Z,8.30
2018-05-18T10:28:54.879Z,8.30
2018-05-18T10:31:23.197Z,7.55
2018-05-18T10:33:52.240Z,8.57
2018-05-18T10:36:20.508Z,7.70
2018-05-18T10:38:48.820Z,7.57
2018-05-18T10:41:17.088Z,7.55
2018-05-18T10:43:45.379Z,7.82
2018-05-18T10:46:13.697Z,7.87
2018-05-18T10:48:42.774Z,8.43
2018-05-18T10:51:11.063Z,7.25
2018-05-18T10:53:39.316Z,7.43
2018-05-18T10:56:08.365Z,7.63
2018-05-18T10:58:37.027Z,7.77
2018-05-18T11:01:08.031Z,6.85
2018-05-18T11:03:36.333Z,8.37
2018-05-18T11:06:05.392Z,6.97
2018-05-18T11:08:33.675Z,6.80
2018-05-18T11:11:02.748Z,8.47
2018-05-18T11:13:31.026Z,7.82
2018-05-18T11:15:59.310Z,8.37
2018-05-18T11:18:27.663Z,7.93
2018-05-18T11:20:55.973Z,7.83
2018-05-18T11:23:24.324Z,9.35
2018-05-18T11:25:52.741Z,9.37
2018-05-18T11:28:21.806Z,7.60
2018-05-18T11:30:50.098Z,8.02
2018-05-18T11:33:18.362Z,7.33
2018-05-18T11:35:47.426Z,7.82
2018-05-18T11:38:15.680Z,7.10
2018-05-18T11:40:43.987Z,7.32
2018-05-18T11:43:12.300Z,7.12
2018-05-18T11:45:40.765Z,7.05
2018-05-18T11:48:09.911Z,7.47
2018-05-18T11:50:38.137Z,8.60
2018-05-18T11:53:06.417Z,7.93
2018-05-18T11:55:34.695Z,8.00
2018-05-18T11:58:03.002Z,7.93
2018-05-18T12:00:32.012Z,7.80
2018-05-18T12:03:00.310Z,8.57
2018-05-18T12:05:29.844Z,8.57
2018-05-18T12:07:58.089Z,8.57
2018-05-18T12:10:26.374Z,7.57
2018-05-18T12:12:54.777Z,8.75
2018-05-18T12:15:23.092Z,7.87
2018-05-18T12:17:51.377Z,7.03
2018-05-18T12:20:19.770Z,8.43
2018-05-18T12:22:47.949Z,7.60
2018-05-18T12:25:17.164Z,8.33
2018-05-18T12:27:45.441Z,7.75
2018-05-18T12:30:13.742Z,7.30
2018-05-18T12:32:43.522Z,6.72
2018-05-18T12:35:11.850Z,8.02
2018-05-18T12:37:40.190Z,8.13
2018-05-18T12:40:08.476Z,8.10
2018-05-18T12:42:36.863Z,7.63
2018-05-18T12:45:05.139Z,8.60
2018-05-18T12:47:34.536Z,8.10
2018-05-18T12:50:02.851Z,7.90
2018-05-18T12:52:31.133Z,7.90
2018-05-18T12:54:59.473Z,7.93
2018-05-18T12:57:27.805Z,7.43
2018-05-18T12:59:56.788Z,7.65
2018-05-18T13:02:25.151Z,6.83
2018-05-18T13:04:54.200Z,6.70
2018-05-18T13:07:22.595Z,7.78
2018-05-18T13:09:51.266Z,8.27
2018-05-18T13:12:19.552Z,7.13
2018-05-18T13:14:47.870Z,7.63
2018-05-18T13:17:16.139Z,7.70
2018-05-18T13:19:45.214Z,7.35
2018-05-18T13:22:13.447Z,7.37
2018-05-18T13:24:41.776Z,7.12
2018-05-18T13:27:10.051Z,7.07
2018-05-18T13:29:39.167Z,7.77
2018-05-18T13:32:07.470Z,7.95
2018-05-18T13:34:36.896Z,6.97
2018-05-18T13:37:05.156Z,7.00
2018-05-18T13:39:33.446Z,6.00
2018-05-18T13:42:01.718Z,6.30
2018-05-18T13:44:29.973Z,7.00
2018-05-18T13:46:58.378Z,7.43
2018-05-18T13:49:26.747Z,6.30
2018-05-18T13:51:54.998Z,6.57
2018-05-18T13:54:23.295Z,6.25
2018-05-18T13:56:51.570Z,6.47
2018-05-18T13:59:19.883Z,7.32
2018-05-18T14:01:48.156Z,6.22
2018-05-18T14:04:17.177Z,7.00
2018-05-18T14:06:45.973Z,5.75
2018-05-18T14:09:14.271Z,5.55
2018-05-18T14:11:42.549Z,6.15
2018-05-18T14:14:10.853Z,5.93
2018-05-18T14:16:40.012Z,6.07
2018-05-18T14:19:09.147Z,5.82
2018-05-18T14:21:37.458Z,6.45
2018-05-18T14:24:07.426Z,5.50
2018-05-18T14:26:35.723Z,6.25
2018-05-18T14:29:04.001Z,6.25
2018-05-18T14:31:32.348Z,6.65
2018-05-18T14:34:00.675Z,5.82
2018-05-18T14:36:29.742Z,5.57
2018-05-18T14:38:58.033Z,6.40
2018-05-18T14:41:26.312Z,5.62
2018-05-18T14:43:55.184Z,6.00
2018-05-18T14:46:23.436Z,6.22
2018-05-18T14:48:51.761Z,5.57
2018-05-18T14:51:20.811Z,6.20
2018-05-18T14:53:49.131Z,6.78
2018-05-18T14:56:18.163Z,6.97
2018-05-18T14:58:46.482Z,7.22
2018-05-18T15:01:14.786Z,6.47
2018-05-18T15:03:43.936Z,6.15
2018-05-18T15:06:12.190Z,6.47
2018-05-18T15:08:40.458Z,7.25
2018-05-18T15:11:08.971Z,6.15
2018-05-18T15:13:37.139Z,7.12
2018-05-18T15:16:05.440Z,7.93
2018-05-18T15:18:37.349Z,7.50
2018-05-18T15:21:05.675Z,7.25
2018-05-18T15:23:35.116Z,7.20
2018-05-18T15:26:04.141Z,8.02
2018-05-18T15:28:33.200Z,8.10
2018-05-18T15:31:03.395Z,6.87
2018-05-18T15:33:31.952Z,6.50
2018-05-18T15:36:00.227Z,7.00
2018-05-18T15:38:28.510Z,8.00
2018-05-18T15:40:56.788Z,6.90
2018-05-18T15:43:25.068Z,6.73
2018-05-18T15:45:53.373Z,6.93
2018-05-18T15:48:22.433Z,6.45
2018-05-18T15:50:50.741Z,7.40
2018-05-18T15:53:18.996Z,6.55
2018-05-18T15:55:47.297Z,6.15
2018-05-18T15:58:16.368Z,5.95
2018-05-18T16:00:44.757Z,5.85
2018-05-18T16:03:13.173Z,6.30
2018-05-18T16:05:41.451Z,5.87
2018-05-18T16:08:10.519Z,6.63
2018-05-18T16:10:38.811Z,6.60
2018-05-18T16:13:07.087Z,6.03
2018-05-18T16:15:35.405Z,5.97
2018-05-18T16:18:03.717Z,5.85
2018-05-18T16:20:32.009Z,6.67
2018-05-18T16:23:01.048Z,6.35
2018-05-18T16:25:29.341Z,5.87
2018-05-18T16:27:57.696Z,6.43
2018-05-18T16:30:25.917Z,5.67
2018-05-18T16:32:54.192Z,6.20
2018-05-18T16:35:22.469Z,7.57
2018-05-18T16:37:50.764Z,6.05
2018-05-18T16:40:19.871Z,6.33
2018-05-18T16:42:48.178Z,5.70
2018-05-18T16:45:16.481Z,6.20
2018-05-18T16:47:44.798Z,6.60
2018-05-18T16:50:13.857Z,6.37
2018-05-18T16:52:42.149Z,6.47
2018-05-18T16:55:10.502Z,6.67
2018-05-18T16:57:38.748Z,6.03
2018-05-18T17:00:07.859Z,6.60
2018-05-18T17:02:36.134Z,6.83
2018-05-18T17:05:04.501Z,6.47
2018-05-18T17:07:32.793Z,5.30
2018-05-18T17:10:01.114Z,6.23
2018-05-18T17:12:30.275Z,6.53
2018-05-18T17:14:59.557Z,6.50
2018-05-18T17:17:27.884Z,6.20
2018-05-18T17:19:56.145Z,8.40
2018-05-18T17:22:24.476Z,6.23
2018-05-18T17:24:52.757Z,7.07
2018-05-18T17:27:21.049Z,7.57
2018-05-18T17:29:49.315Z,6.97
2018-05-18T17:32:17.611Z,6.00
2018-05-18T17:34:45.930Z,5.57
2018-05-18T17:37:15.105Z,6.87
2018-05-18T17:39:43.385Z,7.07
2018-05-18T17:42:11.768Z,6.17
2018-05-18T17:44:40.034Z,6.73
2018-05-18T17:47:08.302Z,6.40
2018-05-18T17:49:36.610Z,6.73
2018-05-18T17:52:06.457Z,6.27
2018-05-18T17:54:38.429Z,6.93
2018-05-18T17:57:07.842Z,6.30
2018-05-18T17:59:36.163Z,6.77
2018-05-18T18:02:05.329Z,6.77
2018-05-18T18:04:33.679Z,7.50
2018-05-18T18:07:01.978Z,7.50
2018-05-18T18:09:30.363Z,6.83
2018-05-18T18:11:58.655Z,7.13
2018-05-18T18:14:28.858Z,6.10
2018-05-18T18:16:58.154Z,6.60
2018-05-18T18:19:26.414Z,6.40
2018-05-18T18:21:54.734Z,6.33
2018-05-18T18:24:23.890Z,5.57
2018-05-18T18:26:52.229Z,6.97
2018-05-18T18:29:21.428Z,7.30
2018-05-18T18:31:49.699Z,6.20
2018-05-18T18:34:17.969Z,6.83
2018-05-18T18:36:47.047Z,6.83
2018-05-18T18:39:15.337Z,6.50
2018-05-18T18:41:44.416Z,6.97
2018-05-18T18:44:12.740Z,7.50
2018-05-18T18:46:41.143Z,6.23
2018-05-18T18:49:09.452Z,6.90
2018-05-18T18:51:37.755Z,6.13
2018-05-18T18:54:06.058Z,7.53
2018-05-18T18:56:34.365Z,8.13
2018-05-18T18:59:03.453Z,7.60
2018-05-18T19:01:31.798Z,7.63
2018-05-18T19:04:00.058Z,7.97
2018-05-18T19:06:28.353Z,7.47
2018-05-18T19:08:57.912Z,8.07
2018-05-18T19:11:26.279Z,8.97
2018-05-18T19:13:54.581Z,9.37
2018-05-18T19:16:22.871Z,7.73
2018-05-18T19:18:51.176Z,8.97
2018-05-18T19:21:19.459Z,8.77
2018-05-18T19:23:48.670Z,8.23
2018-05-18T19:26:16.970Z,9.30
2018-05-18T19:28:45.336Z,8.87
2018-05-18T19:31:13.655Z,10.30
2018-05-18T19:33:41.924Z,9.83
2018-05-18T19:36:10.209Z,9.83
2018-05-18T19:38:38.489Z,9.53
2018-05-18T19:41:06.810Z,9.23
2018-05-18T19:43:35.076Z,9.27
2018-05-18T19:46:03.391Z,9.23
2018-05-18T19:48:32.556Z,9.07
2018-05-18T19:51:00.861Z,9.67
2018-05-18T19:53:31.267Z,9.10
2018-05-18T19:55:59.668Z,9.63
2018-05-18T19:58:29.148Z,9.53
2018-05-18T20:01:00.863Z,7.93
2018-05-18T20:03:29.366Z,9.60
2018-05-18T20:05:57.565Z,10.30
2018-05-18T20:08:25.897Z,10.40
2018-05-18T20:10:54.152Z,11.47
2018-05-18T20:13:22.483Z,10.50
2018-05-18T20:15:50.776Z,11.57
2018-05-18T20:18:19.227Z,11.17
2018-05-18T20:20:47.437Z,11.80
2018-05-18T20:23:16.525Z,11.67
2018-05-18T20:25:45.199Z,10.20
2018-05-18T20:28:13.520Z,11.33
2018-05-18T20:30:41.815Z,11.87
2018-05-18T20:33:10.115Z,10.60
2018-05-18T20:35:38.426Z,10.60
2018-05-18T20:38:07.527Z,10.63
2018-05-18T20:40:35.800Z,10.27
2018-05-18T20:43:04.911Z,9.57
2018-05-18T20:45:33.161Z,10.67
2018-05-18T20:48:02.083Z,10.03
2018-05-18T20:50:30.421Z,11.90
2018-05-18T20:52:58.706Z,10.47
2018-05-18T20:55:27.627Z,11.30
2018-05-18T20:57:55.937Z,9.93
2018-05-18T21:00:24.221Z,10.27
2018-05-18T21:02:52.536Z,10.63
2018-05-18T21:05:21.558Z,11.17
2018-05-18T21:07:49.880Z,10.33
2018-05-18T21:10:18.172Z,10.50
2018-05-18T21:12:46.460Z,10.57
2018-05-18T21:15:15.498Z,10.27
2018-05-18T21:17:43.791Z,9.87
2018-05-18T21:20:12.878Z,10.97
2018-05-18T21:22:41.165Z,12.33
2018-05-18T21:25:10.376Z,12.80
2018-05-18T21:27:38.670Z,12.33
2018-05-18T21:30:06.985Z,12.83
2018-05-18T21:32:35.261Z,12.30
2018-05-18T21:35:03.509Z,12.50
2018-05-18T21:37:32.560Z,12.73
2018-05-18T21:40:00.819Z,12.37
2018-05-18T21:42:29.112Z,11.47
2018-05-18T21:44:57.388Z,11.70
2018-05-18T21:47:25.683Z,9.97
2018-05-18T21:49:55.189Z,12.33
2018-05-18T21:52:24.601Z,11.80
2018-05-18T21:54:52.850Z,11.40
2018-05-18T21:57:21.136Z,11.50
2018-05-18T21:59:49.518Z,11.13
2018-05-18T22:02:17.820Z,11.00
2018-05-18T22:04:46.862Z,11.37
2018-05-18T22:07:15.174Z,10.93
2018-05-18T22:09:44.985Z,11.00
2018-05-18T22:12:13.271Z,10.10
2018-05-18T22:14:41.565Z,10.00
2018-05-18T22:17:10.615Z,10.50
2018-05-18T22:19:38.902Z,10.03
2018-05-18T22:22:07.286Z,9.90
2018-05-18T22:24:35.547Z,9.87
2018-05-18T22:27:03.839Z,10.13
2018-05-18T22:29:32.214Z,9.43
2018-05-18T22:32:00.472Z,9.87
2018-05-18T22:34:28.844Z,10.20
2018-05-18T22:36:57.117Z,10.00
2018-05-18T22:39:25.416Z,10.40
2018-05-18T22:41:53.710Z,10.43
2018-05-18T22:44:22.077Z,10.57
2018-05-18T22:46:50.350Z,9.73
2018-05-18T22:49:18.650Z,10.10
2018-05-18T22:51:46.996Z,10.80
2018-05-18T22:54:15.690Z,11.03
2018-05-18T22:56:44.005Z,9.60
2018-05-18T22:59:13.043Z,10.07
2018-05-18T23:01:41.286Z,10.70
2018-05-18T23:04:09.600Z,10.33
2018-05-18T23:06:37.870Z,9.47
2018-05-18T23:09:06.147Z,10.13
2018-05-18T23:11:34.505Z,9.17
2018-05-18T23:14:03.564Z,10.20
2018-05-18T23:16:32.604Z,9.97
2018-05-18T23:19:00.921Z,9.80
2018-05-18T23:21:31.168Z,10.73
2018-05-18T23:24:01.361Z,9.33
2018-05-18T23:26:31.345Z,9.63
2018-05-18T23:28:59.594Z,9.90
2018-05-18T23:31:29.142Z,10.50
2018-05-18T23:33:58.229Z,10.60
2018-05-18T23:36:27.439Z,9.97
2018-05-18T23:38:55.725Z,10.07
2018-05-18T23:41:24.014Z,10.80
2018-05-18T23:43:53.037Z,9.87
2018-05-18T23:46:21.341Z,10.37
2018-05-18T23:48:50.794Z,9.97
2018-05-18T23:51:19.060Z,10.40
2018-05-18T23:53:48.085Z,10.13
2018-05-18T23:56:16.376Z,9.93
2018-05-18T23:58:44.652Z,11.53
